Time;durP1;ratioP1;P1;durP2;ratioP2;P2;SDS_P1;SDS_P2;PMS_P1;PMS_P2;Temp;Humidity;BMP_temperature;BMP_pressure;BME280_temperature;BME280_humidity;BME280_pressure;Samples;Min_cycle;Max_cycle;Signal;HPM_P1;HPM_P2
2023/05/26 00:02:21;;;;;;;45.7;40.2;;;;;;;-132.3;0;77570;;;;
2023/05/26 00:12:22;;;;;;;45.7;40.2;;;;;;;-132.3;0;77550;;;;
2023/05/26 00:23:21;;;;;;;45.7;40.2;;;;;;;-132.3;0;77550;;;;
2023/05/26 00:33:21;;;;;;;45.5;37.1;;;;;;;-132.3;0;77530;;;;
2023/05/26 00:44:21;;;;;;;45.5;37.1;;;;;;;-132.3;0;77530;;;;
2023/05/26 00:55:23;;;;;;;45.5;37.1;;;;;;;-132.3;0;77530;;;;
2023/05/26 01:05:21;;;;;;;42.8;35;;;;;;;-132.3;0;77530;;;;
2023/05/26 01:15:21;;;;;;;42.8;35;;;;;;;-132.3;0;77530;;;;
2023/05/26 01:26:21;;;;;;;42.8;35;;;;;;;-132.3;0;77520;;;;
2023/05/26 01:37:21;;;;;;;40.7;34.1;;;;;;;-132.3;0;77530;;;;
2023/05/26 01:48:21;;;;;;;40.7;34.1;;;;;;;-132.3;0;77570;;;;
2023/05/26 01:58:21;;;;;;;40.7;34.1;;;;;;;-132.3;0;77600;;;;
2023/05/26 02:09:21;;;;;;;41.8;35.5;;;;;;;-132.3;0;77620;;;;
2023/05/26 02:19:22;;;;;;;41.8;35.5;;;;;;;-132.3;0;77630;;;;
2023/05/26 02:30:21;;;;;;;41.8;35.5;;;;;;;-132.3;0;77630;;;;
2023/05/26 02:40:21;;;;;;;36.5;21.7;;;;;;;-132.3;0;77640;;;;
2023/05/26 02:51:21;;;;;;;36.5;21.7;;;;;;;-132.3;0;77640;;;;
2023/05/26 03:01:21;;;;;;;36.5;21.7;;;;;;;-132.3;0;77640;;;;
2023/05/26 03:11:21;;;;;;;33.6;23.2;;;;;;;-132.3;0;77640;;;;
2023/05/26 03:21:21;;;;;;;33.6;23.2;;;;;;;-132.3;0;77640;;;;
2023/05/26 03:32:21;;;;;;;31.8;22.1;;;;;;;-132.3;0;77630;;;;
2023/05/26 03:43:21;;;;;;;31.8;22.1;;;;;;;-132.3;0;77620;;;;
2023/05/26 03:54:21;;;;;;;31.8;22.1;;;;;;;-132.3;0;77610;;;;
2023/05/26 04:04:21;;;;;;;33;27;;;;;;;-132.3;0;77580;;;;
2023/05/26 04:14:21;;;;;;;33;27;;;;;;;-132.3;0;77540;;;;
2023/05/26 04:24:21;;;;;;;33;27;;;;;;;-132.3;0;77490;;;;
2023/05/26 04:35:21;;;;;;;35.4;29.2;;;;;;;-132.3;0;77450;;;;
2023/05/26 04:46:21;;;;;;;35.4;29.2;;;;;;;-132.3;0;77380;;;;
2023/05/26 04:56:21;;;;;;;35.4;29.2;;;;;;;-132.3;0;77310;;;;
2023/05/26 05:07:21;;;;;;;46.3;36.1;;;;;;;-132.3;0;77250;;;;
2023/05/26 05:17:21;;;;;;;46.3;36.1;;;;;;;-132.3;0;77220;;;;
2023/05/26 05:28:21;;;;;;;46.3;36.1;;;;;;;-132.3;0;77170;;;;
2023/05/26 05:38:21;;;;;;;48.2;38.4;;;;;;;-132.3;0;77150;;;;
2023/05/26 05:49:21;;;;;;;48.2;38.4;;;;;;;-132.3;0;77110;;;;
2023/05/26 05:59:21;;;;;;;48.2;38.4;;;;;;;-132.3;0;77080;;;;
2023/05/26 06:10:22;;;;;;;48.6;39.3;;;;;;;-132.3;0;77060;;;;
2023/05/26 06:21:21;;;;;;;48.6;39.3;;;;;;;-132.3;0;76960;;;;
2023/05/26 06:31:21;;;;;;;48.6;39.3;;;;;;;-132.3;0;76920;;;;
2023/05/26 06:42:21;;;;;;;37.8;32.6;;;;;;;-132.3;0;76910;;;;
2023/05/26 06:53:05;;;;;;;37.8;32.6;;;;;;;-132.3;0;76910;;;;
2023/05/26 07:03:05;;;;;;;32.9;27.2;;;;;;;-132.3;0;76920;;;;
2023/05/26 07:13:05;;;;;;;32.9;27.2;;;;;;;-132.3;0;76910;;;;
2023/05/26 07:23:05;;;;;;;32.9;27.2;;;;;;;-132.3;0;76870;;;;
2023/05/26 07:33:05;;;;;;;36.7;30.8;;;;;;;-132.3;0;76830;;;;
2023/05/26 07:44:05;;;;;;;36.7;30.8;;;;;;;-132.3;0;76790;;;;
2023/05/26 07:54:05;;;;;;;36.7;30.8;;;;;;;-132.3;0;76780;;;;
2023/05/26 08:05:05;;;;;;;38.2;32.7;;;;;;;-132.3;0;76750;;;;
2023/05/26 08:16:05;;;;;;;38.2;32.7;;;;;;;-132.3;0;76670;;;;
2023/05/26 08:26:05;;;;;;;38.2;32.7;;;;;;;-132.3;0;76620;;;;
2023/05/26 08:37:05;;;;;;;31.6;25.2;;;;;;;-132.3;0;76530;;;;
2023/05/26 08:48:05;;;;;;;31.6;25.2;;;;;;;-132.3;0;76510;;;;
2023/05/26 08:59:08;;;;;;;31.6;25.2;;;;;;;-132.3;0;76540;;;;
2023/05/26 09:09:05;;;;;;;25.7;20.2;;;;;;;-132.3;0;76510;;;;
2023/05/26 09:20:05;;;;;;;25.7;20.2;;;;;;;-132.3;0;76460;;;;
2023/05/26 09:30:05;;;;;;;25.7;20.2;;;;;;;-132.3;0;76440;;;;
2023/05/26 09:40:05;;;;;;;27.8;21.9;;;;;;;-132.3;0;76340;;;;
2023/05/26 09:51:05;;;;;;;27.8;21.9;;;;;;;-132.3;0;76290;;;;
2023/05/26 10:01:05;;;;;;;27.8;21.9;;;;;;;-132.3;0;76280;;;;
2023/05/26 10:12:06;;;;;;;27.7;20.5;;;;;;;-132.3;0;76200;;;;
2023/05/26 10:22:05;;;;;;;27.7;20.5;;;;;;;-132.3;0;76230;;;;
2023/05/26 10:33:05;;;;;;;24.4;17.4;;;;;;;-132.3;0;76200;;;;
2023/05/26 10:44:05;;;;;;;24.4;17.4;;;;;;;-132.3;0;76270;;;;
2023/05/26 10:55:07;;;;;;;24.4;17.4;;;;;;;-132.3;0;76280;;;;
2023/05/26 11:05:06;;;;;;;15.9;12.4;;;;;;;-132.3;0;76230;;;;
2023/05/26 11:16:05;;;;;;;15.9;12.4;;;;;;;-132.3;0;76080;;;;
2023/05/26 11:26:05;;;;;;;15.9;12.4;;;;;;;-132.3;0;76140;;;;
2023/05/26 11:37:05;;;;;;;19.7;14.3;;;;;;;-132.3;0;76300;;;;
2023/05/26 11:47:05;;;;;;;19.7;14.3;;;;;;;-132.3;0;76330;;;;
2023/05/26 11:58:05;;;;;;;19.7;14.3;;;;;;;-132.3;0;76330;;;;
2023/05/26 12:09:06;;;;;;;13.6;10.9;;;;;;;-132.3;0;76290;;;;
2023/05/26 12:19:05;;;;;;;13.6;10.9;;;;;;;-132.3;0;76180;;;;
2023/05/26 12:30:05;;;;;;;13.6;10.9;;;;;;;-132.3;0;76190;;;;
2023/05/26 12:41:05;;;;;;;10.1;6.3;;;;;;;-132.3;0;76180;;;;
2023/05/26 12:52:05;;;;;;;10.1;6.3;;;;;;;-132.3;0;76190;;;;
2023/05/26 13:02:05;;;;;;;10.1;6.3;;;;;;;-132.3;0;76210;;;;
2023/05/26 13:12:05;;;;;;;9.2;6.5;;;;;;;-132.3;0;76150;;;;
2023/05/26 13:23:05;;;;;;;9.2;6.5;;;;;;;-132.3;0;76180;;;;
2023/05/26 13:33:05;;;;;;;11.3;7.8;;;;;;;-132.3;0;76330;;;;
2023/05/26 13:44:05;;;;;;;11.3;7.8;;;;;;;-132.3;0;76370;;;;
2023/05/26 13:55:05;;;;;;;11.3;7.8;;;;;;;-132.3;0;76380;;;;
2023/05/26 14:06:05;;;;;;;11.7;8;;;;;;;-132.3;0;76400;;;;
2023/05/26 14:16:05;;;;;;;11.7;8;;;;;;;-132.3;0;76430;;;;
2023/05/26 14:26:05;;;;;;;11.7;8;;;;;;;-132.3;0;76450;;;;
2023/05/26 14:37:05;;;;;;;10.3;6.8;;;;;;;-132.3;0;76450;;;;
2023/05/26 14:47:05;;;;;;;10.3;6.8;;;;;;;-132.3;0;76430;;;;
2023/05/26 14:58:10;;;;;;;10.3;6.8;;;;;;;-132.3;0;76370;;;;
2023/05/26 15:09:05;;;;;;;8.2;6.2;;;;;;;-132.3;0;76330;;;;
2023/05/26 15:19:05;;;;;;;8.2;6.2;;;;;;;-132.3;0;76280;;;;
2023/05/26 15:29:05;;;;;;;8.2;6.2;;;;;;;-132.3;0;76350;;;;
2023/05/26 15:40:05;;;;;;;8.7;5.6;;;;;;;-132.3;0;76430;;;;
2023/05/26 15:50:05;;;;;;;8.7;5.6;;;;;;;-132.3;0;76490;;;;
2023/05/26 16:01:05;;;;;;;8.7;5.6;;;;;;;-132.3;0;76510;;;;
2023/05/26 16:11:05;;;;;;;10.2;6.2;;;;;;;-132.3;0;76530;;;;
2023/05/26 16:22:05;;;;;;;10.2;6.2;;;;;;;-132.3;0;76550;;;;
2023/05/26 16:32:05;;;;;;;10.2;6.2;;;;;;;-132.3;0;76580;;;;
2023/05/26 16:43:05;;;;;;;14.2;6.9;;;;;;;-132.3;0;76590;;;;
2023/05/26 16:53:09;;;;;;;14.2;6.9;;;;;;;-132.3;0;76610;;;;
2023/05/26 17:04:05;;;;;;;10.4;6.3;;;;;;;-132.3;0;76630;;;;
2023/05/26 17:14:06;;;;;;;10.4;6.3;;;;;;;-132.3;0;76630;;;;
2023/05/26 17:24:05;;;;;;;10.4;6.3;;;;;;;-132.3;0;76640;;;;
2023/05/26 17:35:05;;;;;;;11.8;6.6;;;;;;;-132.3;0;76650;;;;
2023/05/26 17:45:06;;;;;;;11.8;6.6;;;;;;;-132.3;0;76670;;;;
2023/05/26 17:55:05;;;;;;;11.8;6.6;;;;;;;-132.3;0;76690;;;;
2023/05/26 18:06:05;;;;;;;12.8;6.5;;;;;;;-132.3;0;76760;;;;
2023/05/26 18:17:05;;;;;;;12.8;6.5;;;;;;;-132.3;0;76810;;;;
2023/05/26 18:27:05;;;;;;;12.8;6.5;;;;;;;-132.3;0;76890;;;;
2023/05/26 18:38:05;;;;;;;7.7;4.3;;;;;;;-132.3;0;76950;;;;
2023/05/26 18:49:05;;;;;;;7.7;4.3;;;;;;;-132.3;0;77040;;;;
2023/05/26 19:00:05;;;;;;;7.7;4.3;;;;;;;-132.3;0;77090;;;;
2023/05/26 19:10:06;;;;;;;9.2;4.9;;;;;;;-132.3;0;77170;;;;
2023/05/26 19:21:05;;;;;;;9.2;4.9;;;;;;;-132.3;0;77250;;;;
2023/05/26 19:32:05;;;;;;;9.2;4.9;;;;;;;-132.3;0;77310;;;;
2023/05/26 19:42:06;;;;;;;10.2;4.4;;;;;;;-132.3;0;77350;;;;
2023/05/26 19:53:05;;;;;;;10.2;4.4;;;;;;;-132.3;0;77360;;;;
2023/05/26 20:03:06;;;;;;;37.4;25.3;;;;;;;-132.3;0;77370;;;;
2023/05/26 20:14:06;;;;;;;37.4;25.3;;;;;;;-132.3;0;77380;;;;
2023/05/26 20:25:06;;;;;;;37.4;25.3;;;;;;;-132.3;0;77390;;;;
2023/05/26 20:35:06;;;;;;;9.6;5.9;;;;;;;-132.3;0;77410;;;;
2023/05/26 20:46:06;;;;;;;9.6;5.9;;;;;;;-132.3;0;77450;;;;
2023/05/26 20:56:06;;;;;;;9.6;5.9;;;;;;;-132.3;0;77480;;;;
2023/05/26 21:06:06;;;;;;;11;6.2;;;;;;;-132.3;0;77500;;;;
2023/05/26 21:17:06;;;;;;;11;6.2;;;;;;;-132.3;0;77540;;;;
2023/05/26 21:27:06;;;;;;;11;6.2;;;;;;;-132.3;0;77570;;;;
2023/05/26 21:37:06;;;;;;;11.2;6.5;;;;;;;-132.3;0;77620;;;;
2023/05/26 21:48:06;;;;;;;11.2;6.5;;;;;;;-132.3;0;77680;;;;
2023/05/26 21:58:06;;;;;;;11.2;6.5;;;;;;;-132.3;0;77720;;;;
2023/05/26 22:09:06;;;;;;;11.2;5;;;;;;;-132.3;0;77770;;;;
2023/05/26 22:20:06;;;;;;;11.2;5;;;;;;;-132.3;0;77820;;;;
2023/05/26 22:30:06;;;;;;;11.2;5;;;;;;;-132.3;0;77850;;;;
2023/05/26 22:41:06;;;;;;;10.9;5.1;;;;;;;-132.3;0;77880;;;;
2023/05/26 22:52:06;;;;;;;10.9;5.1;;;;;;;-132.3;0;77900;;;;
2023/05/26 23:03:06;;;;;;;9.8;4.7;;;;;;;-132.3;0;77930;;;;
2023/05/26 23:13:06;;;;;;;9.8;4.7;;;;;;;-132.3;0;77940;;;;
2023/05/26 23:24:06;;;;;;;9.8;4.7;;;;;;;-132.3;0;77950;;;;
2023/05/26 23:35:06;;;;;;;10.8;4.2;;;;;;;-132.3;0;77980;;;;
2023/05/26 23:46:06;;;;;;;10.8;4.2;;;;;;;-132.3;0;78000;;;;
2023/05/26 23:56:06;;;;;;;10.8;4.2;;;;;;;-132.3;0;78030;;;;
